L Anse, Michigan
Current Conditions -  °F | °C
As of 3:42 AM on Friday 31 Oct 2014 (Local Time) from KCMX Reporting Station
Light Snow Light Snow  
Wind Chill: -8°   Ceiling: 3000
Heat Index: -1°   Visibility: 3mi
Dew Point: -4°   Wind: 20mph
Humidity: 79%   Direction: 10°N
Pressure: 30.22"   Gusts: 30mph
Location:  46.7277°N, 88.2881°W
Report Text: KCMX 310742Z AUTO 01017G26KT 3SM -SN FEW023 OVC030 M01/M04 A3022 RMK AO2 PK WND 01026/0707 SNB15 P0001 T10111044
Loading
Personal Weather Stations






























Interactive Weather Map
Tropical Storm Tracking
New forecast layout! Learn more

10-Day Weather Forecast

Advertisements
Track Severe Weather on mobile